sensor_id;sensor_type;location;lat;lon;timestamp;pressure;altitude;pressure_sealevel;temperature;humidity
29169;BME280;16219;42.864;23.360;2023-04-01T00:01:05;95024.69;;;8.16;100.00
29169;BME280;16219;42.864;23.360;2023-04-01T00:03:33;95031.47;;;8.08;100.00
29169;BME280;16219;42.864;23.360;2023-04-01T00:06:01;95029.59;;;8.17;100.00
29169;BME280;16219;42.864;23.360;2023-04-01T00:08:28;95020.59;;;8.27;100.00
29169;BME280;16219;42.864;23.360;2023-04-01T00:10:56;95026.63;;;8.27;100.00
29169;BME280;16219;42.864;23.360;2023-04-01T00:13:25;95021.84;;;8.30;100.00
29169;BME280;16219;42.864;23.360;2023-04-01T00:15:52;95004.56;;;8.20;100.00
29169;BME280;16219;42.864;23.360;2023-04-01T00:18:20;95014.13;;;8.33;100.00
29169;BME280;16219;42.864;23.360;2023-04-01T00:20:48;95026.03;;;8.22;100.00
29169;BME280;16219;42.864;23.360;2023-04-01T00:23:16;95019.41;;;8.24;100.00
29169;BME280;16219;42.864;23.360;2023-04-01T00:25:44;95017.81;;;8.32;100.00
29169;BME280;16219;42.864;23.360;2023-04-01T00:28:15;95016.59;;;8.38;100.00
29169;BME280;16219;42.864;23.360;2023-04-01T00:30:44;95001.75;;;8.42;100.00
29169;BME280;16219;42.864;23.360;2023-04-01T00:33:11;94997.09;;;8.39;100.00
29169;BME280;16219;42.864;23.360;2023-04-01T00:35:38;94999.69;;;8.48;100.00
29169;BME280;16219;42.864;23.360;2023-04-01T00:38:06;95000.28;;;8.54;100.00
29169;BME280;16219;42.864;23.360;2023-04-01T00:40:35;94995.34;;;8.52;100.00
29169;BME280;16219;42.864;23.360;2023-04-01T00:43:03;94981.00;;;8.41;100.00
29169;BME280;16219;42.864;23.360;2023-04-01T00:45:33;94984.84;;;8.52;100.00
29169;BME280;16219;42.864;23.360;2023-04-01T00:48:05;94977.16;;;8.38;100.00
29169;BME280;16219;42.864;23.360;2023-04-01T00:50:34;94977.63;;;8.40;100.00
29169;BME280;16219;42.864;23.360;2023-04-01T00:53:02;94973.91;;;8.41;100.00
29169;BME280;16219;42.864;23.360;2023-04-01T00:55:32;94968.97;;;8.40;100.00
29169;BME280;16219;42.864;23.360;2023-04-01T00:58:02;94962.50;;;8.37;100.00
29169;BME280;16219;42.864;23.360;2023-04-01T01:00:30;94954.47;;;8.25;100.00
29169;BME280;16219;42.864;23.360;2023-04-01T01:02:58;94952.50;;;8.13;100.00
29169;BME280;16219;42.864;23.360;2023-04-01T01:05:34;94939.19;;;8.18;100.00
29169;BME280;16219;42.864;23.360;2023-04-01T01:08:13;94948.56;;;8.28;100.00
29169;BME280;16219;42.864;23.360;2023-04-01T01:10:43;94936.84;;;8.25;100.00
29169;BME280;16219;42.864;23.360;2023-04-01T01:13:18;94940.44;;;8.21;100.00
29169;BME280;16219;42.864;23.360;2023-04-01T01:15:51;94940.09;;;8.22;100.00
29169;BME280;16219;42.864;23.360;2023-04-01T01:18:29;94938.44;;;8.09;100.00
29169;BME280;16219;42.864;23.360;2023-04-01T01:21:21;94923.88;;;7.82;100.00
29169;BME280;16219;42.864;23.360;2023-04-01T01:24:37;94929.88;;;7.91;100.00
29169;BME280;16219;42.864;23.360;2023-04-01T01:27:07;94919.19;;;7.96;100.00
29169;BME280;16219;42.864;23.360;2023-04-01T01:29:54;94909.91;;;7.99;100.00
29169;BME280;16219;42.864;23.360;2023-04-01T01:32:44;94906.22;;;7.91;100.00
29169;BME280;16219;42.864;23.360;2023-04-01T01:35:24;94902.84;;;7.91;100.00
29169;BME280;16219;42.864;23.360;2023-04-01T01:37:55;94897.72;;;7.94;100.00
29169;BME280;16219;42.864;23.360;2023-04-01T01:40:25;94893.59;;;7.76;100.00
29169;BME280;16219;42.864;23.360;2023-04-01T01:42:56;94905.97;;;7.75;100.00
29169;BME280;16219;42.864;23.360;2023-04-01T01:45:26;94901.16;;;7.86;100.00
29169;BME280;16219;42.864;23.360;2023-04-01T01:47:55;94903.44;;;7.88;100.00
29169;BME280;16219;42.864;23.360;2023-04-01T01:50:26;94873.38;;;7.68;100.00
29169;BME280;16219;42.864;23.360;2023-04-01T01:53:03;94893.41;;;7.81;100.00
29169;BME280;16219;42.864;23.360;2023-04-01T01:55:32;94896.72;;;7.69;100.00
29169;BME280;16219;42.864;23.360;2023-04-01T01:58:02;94889.16;;;7.59;100.00
29169;BME280;16219;42.864;23.360;2023-04-01T02:00:33;94884.69;;;7.51;100.00
29169;BME280;16219;42.864;23.360;2023-04-01T02:03:01;94887.75;;;7.70;100.00
29169;BME280;16219;42.864;23.360;2023-04-01T02:05:30;94885.69;;;7.85;100.00
29169;BME280;16219;42.864;23.360;2023-04-01T02:08:08;94884.19;;;7.75;100.00
29169;BME280;16219;42.864;23.360;2023-04-01T02:10:41;94880.03;;;7.74;100.00
29169;BME280;16219;42.864;23.360;2023-04-01T02:13:15;94876.75;;;7.77;100.00
29169;BME280;16219;42.864;23.360;2023-04-01T02:16:02;94868.72;;;7.82;100.00
29169;BME280;16219;42.864;23.360;2023-04-01T02:18:33;94873.06;;;7.78;100.00
29169;BME280;16219;42.864;23.360;2023-04-01T02:21:05;94881.38;;;7.80;100.00
29169;BME280;16219;42.864;23.360;2023-04-01T02:23:35;94866.72;;;7.79;100.00
29169;BME280;16219;42.864;23.360;2023-04-01T02:26:05;94865.34;;;7.73;100.00
29169;BME280;16219;42.864;23.360;2023-04-01T02:28:34;94866.13;;;7.73;100.00
29169;BME280;16219;42.864;23.360;2023-04-01T02:31:04;94872.91;;;7.74;100.00
29169;BME280;16219;42.864;23.360;2023-04-01T02:33:31;94878.00;;;7.80;100.00
29169;BME280;16219;42.864;23.360;2023-04-01T02:35:58;94884.63;;;7.77;100.00
29169;BME280;16219;42.864;23.360;2023-04-01T02:38:27;94887.22;;;7.86;100.00
29169;BME280;16219;42.864;23.360;2023-04-01T02:40:58;94885.41;;;7.86;100.00
29169;BME280;16219;42.864;23.360;2023-04-01T02:43:25;94889.09;;;7.85;100.00
29169;BME280;16219;42.864;23.360;2023-04-01T02:45:52;94889.09;;;7.85;100.00
29169;BME280;16219;42.864;23.360;2023-04-01T02:48:20;94886.00;;;7.83;100.00
29169;BME280;16219;42.864;23.360;2023-04-01T02:50:47;94889.59;;;7.79;100.00
29169;BME280;16219;42.864;23.360;2023-04-01T02:53:15;94887.25;;;7.77;100.00
29169;BME280;16219;42.864;23.360;2023-04-01T02:55:43;94891.88;;;7.80;100.00
29169;BME280;16219;42.864;23.360;2023-04-01T02:58:10;94892.38;;;7.82;100.00
29169;BME280;16219;42.864;23.360;2023-04-01T03:00:37;94904.22;;;7.88;100.00
29169;BME280;16219;42.864;23.360;2023-04-01T03:03:04;94908.56;;;7.84;100.00
29169;BME280;16219;42.864;23.360;2023-04-01T03:05:31;94899.59;;;7.85;100.00
29169;BME280;16219;42.864;23.360;2023-04-01T03:07:58;94916.13;;;7.86;100.00
29169;BME280;16219;42.864;23.360;2023-04-01T03:10:25;94904.19;;;7.97;100.00
29169;BME280;16219;42.864;23.360;2023-04-01T03:12:54;94892.19;;;7.87;100.00
29169;BME280;16219;42.864;23.360;2023-04-01T03:15:22;94899.88;;;7.92;100.00
29169;BME280;16219;42.864;23.360;2023-04-01T03:17:49;94905.59;;;7.86;100.00
29169;BME280;16219;42.864;23.360;2023-04-01T03:20:17;94908.56;;;7.84;100.00
29169;BME280;16219;42.864;23.360;2023-04-01T03:22:44;94911.19;;;7.84;100.00
29169;BME280;16219;42.864;23.360;2023-04-01T03:25:12;94910.09;;;7.85;100.00
29169;BME280;16219;42.864;23.360;2023-04-01T03:27:39;94905.94;;;7.84;100.00
29169;BME280;16219;42.864;23.360;2023-04-01T03:30:10;94901.78;;;7.83;100.00
29169;BME280;16219;42.864;23.360;2023-04-01T03:32:46;94905.63;;;7.77;100.00
29169;BME280;16219;42.864;23.360;2023-04-01T03:35:12;94898.22;;;7.79;100.00
29169;BME280;16219;42.864;23.360;2023-04-01T03:37:40;94909.19;;;7.81;100.00
29169;BME280;16219;42.864;23.360;2023-04-01T03:40:08;94909.34;;;7.76;100.00
29169;BME280;16219;42.864;23.360;2023-04-01T03:42:35;94904.41;;;7.83;100.00
29169;BME280;16219;42.864;23.360;2023-04-01T03:45:03;94883.88;;;7.68;100.00
29169;BME280;16219;42.864;23.360;2023-04-01T03:47:31;94890.06;;;7.72;100.00
29169;BME280;16219;42.864;23.360;2023-04-01T03:49:59;94883.88;;;7.68;100.00
29169;BME280;16219;42.864;23.360;2023-04-01T03:52:26;94866.94;;;7.65;100.00
29169;BME280;16219;42.864;23.360;2023-04-01T03:54:53;94854.56;;;7.66;100.00
29169;BME280;16219;42.864;23.360;2023-04-01T03:57:21;94845.44;;;7.72;100.00
29169;BME280;16219;42.864;23.360;2023-04-01T03:59:48;94840.00;;;7.77;100.00
29169;BME280;16219;42.864;23.360;2023-04-01T04:02:15;94843.84;;;7.80;100.00
29169;BME280;16219;42.864;23.360;2023-04-01T04:04:44;94828.72;;;7.76;100.00
29169;BME280;16219;42.864;23.360;2023-04-01T04:07:12;94822.28;;;7.74;100.00
29169;BME280;16219;42.864;23.360;2023-04-01T04:09:57;94812.06;;;7.72;100.00
29169;BME280;16219;42.864;23.360;2023-04-01T04:12:24;94806.97;;;7.76;100.00
29169;BME280;16219;42.864;23.360;2023-04-01T04:14:51;94801.59;;;7.64;100.00
29169;BME280;16219;42.864;23.360;2023-04-01T04:17:18;94781.44;;;7.47;100.00
29169;BME280;16219;42.864;23.360;2023-04-01T04:19:47;94790.66;;;7.62;100.00
29169;BME280;16219;42.864;23.360;2023-04-01T04:22:15;94783.34;;;7.76;100.00
29169;BME280;16219;42.864;23.360;2023-04-01T04:24:42;94779.78;;;7.72;100.00
29169;BME280;16219;42.864;23.360;2023-04-01T04:27:12;94776.38;;;7.80;100.00
29169;BME280;16219;42.864;23.360;2023-04-01T04:29:52;94763.50;;;7.87;100.00
29169;BME280;16219;42.864;23.360;2023-04-01T04:32:19;94757.94;;;7.89;100.00
29169;BME280;16219;42.864;23.360;2023-04-01T04:34:47;94758.22;;;7.96;100.00
29169;BME280;16219;42.864;23.360;2023-04-01T04:37:14;94756.34;;;7.96;100.00
29169;BME280;16219;42.864;23.360;2023-04-01T04:39:43;94753.91;;;7.91;100.00
29169;BME280;16219;42.864;23.360;2023-04-01T04:42:10;94748.47;;;7.96;100.00
29169;BME280;16219;42.864;23.360;2023-04-01T04:44:38;94741.69;;;7.95;100.00
29169;BME280;16219;42.864;23.360;2023-04-01T04:47:05;94739.97;;;7.99;100.00
29169;BME280;16219;42.864;23.360;2023-04-01T04:49:33;94738.09;;;8.00;100.00
29169;BME280;16219;42.864;23.360;2023-04-01T04:52:06;94740.78;;;7.91;100.00
29169;BME280;16219;42.864;23.360;2023-04-01T04:54:33;94736.03;;;7.85;100.00
29169;BME280;16219;42.864;23.360;2023-04-01T04:57:02;94729.25;;;7.84;100.00
29169;BME280;16219;42.864;23.360;2023-04-01T04:59:34;94732.19;;;7.82;100.00
29169;BME280;16219;42.864;23.360;2023-04-01T05:02:15;94720.72;;;7.87;100.00
29169;BME280;16219;42.864;23.360;2023-04-01T05:04:43;94716.25;;;7.87;100.00
29169;BME280;16219;42.864;23.360;2023-04-01T05:07:12;94707.84;;;7.94;100.00
29169;BME280;16219;42.864;23.360;2023-04-01T05:09:39;94706.03;;;7.94;100.00
29169;BME280;16219;42.864;23.360;2023-04-01T05:12:06;94703.50;;;7.98;100.00
29169;BME280;16219;42.864;23.360;2023-04-01T05:14:59;94695.44;;;8.03;100.00
29169;BME280;16219;42.864;23.360;2023-04-01T05:17:27;94690.56;;;8.14;100.00
29169;BME280;16219;42.864;23.360;2023-04-01T05:19:55;94694.72;;;8.15;100.00
29169;BME280;16219;42.864;23.360;2023-04-01T05:22:24;94690.56;;;8.14;100.00
29169;BME280;16219;42.864;23.360;2023-04-01T05:24:52;94689.94;;;8.17;100.00
29169;BME280;16219;42.864;23.360;2023-04-01T05:27:26;94692.50;;;8.25;100.00
29169;BME280;16219;42.864;23.360;2023-04-01T05:30:06;94692.09;;;8.15;100.00
29169;BME280;16219;42.864;23.360;2023-04-01T05:32:56;94690.84;;;8.42;100.00
29169;BME280;16219;42.864;23.360;2023-04-01T05:35:24;94695.81;;;8.35;100.00
29169;BME280;16219;42.864;23.360;2023-04-01T05:37:53;94693.19;;;8.35;100.00
29169;BME280;16219;42.864;23.360;2023-04-01T05:40:21;94697.75;;;8.46;100.00
29169;BME280;16219;42.864;23.360;2023-04-01T05:42:48;94689.59;;;8.60;100.00
29169;BME280;16219;42.864;23.360;2023-04-01T05:45:16;94692.47;;;8.67;100.00
29169;BME280;16219;42.864;23.360;2023-04-01T05:48:04;94681.13;;;8.88;100.00
29169;BME280;16219;42.864;23.360;2023-04-01T05:50:39;94672.03;;;8.97;100.00
29169;BME280;16219;42.864;23.360;2023-04-01T05:53:10;94669.84;;;8.99;100.00
29169;BME280;16219;42.864;23.360;2023-04-01T05:55:41;94657.91;;;9.14;100.00
29169;BME280;16219;42.864;23.360;2023-04-01T05:58:08;94671.84;;;9.39;100.00
29169;BME280;16219;42.864;23.360;2023-04-01T06:00:38;94673.78;;;9.67;100.00
29169;BME280;16219;42.864;23.360;2023-04-01T06:03:06;94675.41;;;9.84;100.00
29169;BME280;16219;42.864;23.360;2023-04-01T06:05:38;94671.13;;;9.91;100.00
29169;BME280;16219;42.864;23.360;2023-04-01T06:08:11;94668.38;;;10.00;100.00
29169;BME280;16219;42.864;23.360;2023-04-01T06:10:59;94676.56;;;10.11;100.00
29169;BME280;16219;42.864;23.360;2023-04-01T06:13:39;94673.47;;;10.21;100.00
29169;BME280;16219;42.864;23.360;2023-04-01T06:16:16;94667.66;;;10.56;100.00
29169;BME280;16219;42.864;23.360;2023-04-01T06:19:09;94670.25;;;10.84;100.00
29169;BME280;16219;42.864;23.360;2023-04-01T06:22:16;94666.94;;;11.02;100.00
29169;BME280;16219;42.864;23.360;2023-04-01T06:25:01;94670.59;;;11.30;100.00
29169;BME280;16219;42.864;23.360;2023-04-01T06:27:45;94669.44;;;11.43;100.00
29169;BME280;16219;42.864;23.360;2023-04-01T06:30:30;94664.38;;;11.54;100.00
29169;BME280;16219;42.864;23.360;2023-04-01T06:33:03;94670.31;;;11.66;100.00
29169;BME280;16219;42.864;23.360;2023-04-01T06:35:46;94662.38;;;11.66;100.00
29169;BME280;16219;42.864;23.360;2023-04-01T06:38:33;94670.56;;;11.77;100.00
29169;BME280;16219;42.864;23.360;2023-04-01T06:41:29;94671.84;;;11.83;100.00
29169;BME280;16219;42.864;23.360;2023-04-01T06:44:13;94660.66;;;11.90;100.00
29169;BME280;16219;42.864;23.360;2023-04-01T06:47:12;94661.03;;;12.08;100.00
29169;BME280;16219;42.864;23.360;2023-04-01T06:50:07;94654.28;;;12.10;100.00
29169;BME280;16219;42.864;23.360;2023-04-01T06:53:07;94647.13;;;12.11;100.00
29169;BME280;16219;42.864;23.360;2023-04-01T06:55:58;94652.66;;;12.06;100.00
29169;BME280;16219;42.864;23.360;2023-04-01T06:58:47;94654.78;;;12.16;100.00
29169;BME280;16219;42.864;23.360;2023-04-01T07:01:19;94645.88;;;12.24;100.00
29169;BME280;16219;42.864;23.360;2023-04-01T07:03:49;94645.91;;;12.47;100.00
29169;BME280;16219;42.864;23.360;2023-04-01T07:06:25;94642.50;;;12.66;100.00
29169;BME280;16219;42.864;23.360;2023-04-01T07:08:59;94643.25;;;12.66;100.00
29169;BME280;16219;42.864;23.360;2023-04-01T07:11:43;94623.22;;;12.88;100.00
29169;BME280;16219;42.864;23.360;2023-04-01T07:14:36;94623.13;;;13.04;100.00
29169;BME280;16219;42.864;23.360;2023-04-01T07:17:06;94619.19;;;13.21;100.00
29169;BME280;16219;42.864;23.360;2023-04-01T07:19:42;94621.84;;;13.44;100.00
29169;BME280;16219;42.864;23.360;2023-04-01T07:22:19;94624.53;;;13.74;100.00
29169;BME280;16219;42.864;23.360;2023-04-01T07:25:03;94616.53;;;14.00;100.00
29169;BME280;16219;42.864;23.360;2023-04-01T07:27:32;94621.28;;;14.18;100.00
29169;BME280;16219;42.864;23.360;2023-04-01T07:30:01;94618.31;;;14.53;100.00
29169;BME280;16219;42.864;23.360;2023-04-01T07:32:36;94621.41;;;14.59;100.00
29169;BME280;16219;42.864;23.360;2023-04-01T07:35:17;94618.03;;;14.62;100.00
29169;BME280;16219;42.864;23.360;2023-04-01T07:38:04;94617.22;;;14.58;100.00
29169;BME280;16219;42.864;23.360;2023-04-01T07:40:42;94608.13;;;14.59;100.00
29169;BME280;16219;42.864;23.360;2023-04-01T07:43:40;94605.13;;;14.64;100.00
29169;BME280;16219;42.864;23.360;2023-04-01T07:46:41;94606.72;;;14.72;100.00
29169;BME280;16219;42.864;23.360;2023-04-01T07:49:16;94609.44;;;14.75;100.00
29169;BME280;16219;42.864;23.360;2023-04-01T07:51:50;94615.88;;;14.78;100.00
29169;BME280;16219;42.864;23.360;2023-04-01T07:54:29;94605.22;;;14.71;100.00
29169;BME280;16219;42.864;23.360;2023-04-01T07:57:00;94613.81;;;14.61;100.00
29169;BME280;16219;42.864;23.360;2023-04-01T07:59:51;94612.59;;;14.51;100.00
29169;BME280;16219;42.864;23.360;2023-04-01T08:02:34;94608.78;;;14.48;100.00
29169;BME280;16219;42.864;23.360;2023-04-01T08:05:14;94605.66;;;14.43;95.10
29169;BME280;16219;42.864;23.360;2023-04-01T08:07:49;94594.41;;;14.49;90.15
29169;BME280;16219;42.864;23.360;2023-04-01T08:11:06;94601.34;;;14.65;93.84
29169;BME280;16219;42.864;23.360;2023-04-01T08:14:05;94590.84;;;14.75;81.60
29169;BME280;16219;42.864;23.360;2023-04-01T08:17:13;94578.44;;;14.90;84.08
29169;BME280;16219;42.864;23.360;2023-04-01T08:20:02;94571.72;;;15.04;82.30
29169;BME280;16219;42.864;23.360;2023-04-01T08:22:36;94560.94;;;15.37;84.24
29169;BME280;16219;42.864;23.360;2023-04-01T08:25:17;94543.72;;;15.72;84.40
29169;BME280;16219;42.864;23.360;2023-04-01T08:27:50;94545.31;;;15.94;69.55
29169;BME280;16219;42.864;23.360;2023-04-01T08:30:22;94538.84;;;15.95;67.33
29169;BME280;16219;42.864;23.360;2023-04-01T08:32:53;94539.66;;;16.03;68.16
29169;BME280;16219;42.864;23.360;2023-04-01T08:35:29;94538.56;;;16.25;71.97
29169;BME280;16219;42.864;23.360;2023-04-01T08:38:04;94531.38;;;16.33;67.55
29169;BME280;16219;42.864;23.360;2023-04-01T08:40:58;94522.66;;;16.40;62.45
29169;BME280;16219;42.864;23.360;2023-04-01T08:44:20;94512.00;;;16.58;64.17
29169;BME280;16219;42.864;23.360;2023-04-01T08:47:13;94505.91;;;16.64;64.33
29169;BME280;16219;42.864;23.360;2023-04-01T08:50:02;94512.00;;;16.72;63.58
29169;BME280;16219;42.864;23.360;2023-04-01T08:52:53;94504.06;;;16.83;63.14
29169;BME280;16219;42.864;23.360;2023-04-01T08:55:40;94508.97;;;17.02;58.37
29169;BME280;16219;42.864;23.360;2023-04-01T08:58:29;94508.59;;;17.18;52.93
29169;BME280;16219;42.864;23.360;2023-04-01T09:01:26;94510.50;;;17.14;52.40
29169;BME280;16219;42.864;23.360;2023-04-01T09:04:14;94499.06;;;17.10;53.31
29169;BME280;16219;42.864;23.360;2023-04-01T09:06:58;94497.53;;;17.16;53.48
29169;BME280;16219;42.864;23.360;2023-04-01T09:12:31;94500.63;;;17.00;53.21
29169;BME280;16219;42.864;23.360;2023-04-01T09:15:25;94499.47;;;16.76;52.98
29169;BME280;16219;42.864;23.360;2023-04-01T09:18:12;94489.16;;;16.42;50.93
29169;BME280;16219;42.864;23.360;2023-04-01T09:20:53;94481.19;;;16.46;52.09
29169;BME280;16219;42.864;23.360;2023-04-01T09:26:48;94473.97;;;16.57;52.66
29169;BME280;16219;42.864;23.360;2023-04-01T09:29:38;94467.91;;;16.57;52.00
29169;BME280;16219;42.864;23.360;2023-04-01T09:32:30;94465.22;;;16.49;54.10
29169;BME280;16219;42.864;23.360;2023-04-01T09:35:39;94449.63;;;16.37;52.68
29169;BME280;16219;42.864;23.360;2023-04-01T09:38:22;94437.09;;;16.48;53.47
29169;BME280;16219;42.864;23.360;2023-04-01T09:40:55;94449.63;;;16.62;52.02
29169;BME280;16219;42.864;23.360;2023-04-01T09:43:59;94454.22;;;16.76;56.19
29169;BME280;16219;42.864;23.360;2023-04-01T09:46:38;94432.50;;;16.92;53.45
29169;BME280;16219;42.864;23.360;2023-04-01T09:52:24;94419.38;;;17.55;49.59
29169;BME280;16219;42.864;23.360;2023-04-01T09:55:14;94408.22;;;17.81;47.59
29169;BME280;16219;42.864;23.360;2023-04-01T09:58:10;94395.16;;;17.97;50.82
29169;BME280;16219;42.864;23.360;2023-04-01T10:01:58;94397.72;;;18.12;48.25
29169;BME280;16219;42.864;23.360;2023-04-01T10:04:54;94395.78;;;18.16;48.73
29169;BME280;16219;42.864;23.360;2023-04-01T10:07:53;94393.34;;;18.36;48.72
29169;BME280;16219;42.864;23.360;2023-04-01T10:10:47;94392.94;;;18.41;48.25
29169;BME280;16219;42.864;23.360;2023-04-01T10:16:26;94377.03;;;18.68;49.53
29169;BME280;16219;42.864;23.360;2023-04-01T10:22:40;94365.84;;;19.18;50.05
29169;BME280;16219;42.864;23.360;2023-04-01T10:25:23;94362.63;;;19.34;48.70
29169;BME280;16219;42.864;23.360;2023-04-01T10:41:49;94336.88;;;19.43;46.16
29169;BME280;16219;42.864;23.360;2023-04-01T10:50:24;94326.69;;;19.04;44.77
29169;BME280;16219;42.864;23.360;2023-04-01T10:53:34;94324.31;;;19.10;46.18
29169;BME280;16219;42.864;23.360;2023-04-01T10:56:34;94318.06;;;18.89;44.85
29169;BME280;16219;42.864;23.360;2023-04-01T10:59:47;94302.22;;;18.71;46.55
29169;BME280;16219;42.864;23.360;2023-04-01T11:03:09;94311.34;;;18.78;47.25
29169;BME280;16219;42.864;23.360;2023-04-01T11:06:39;94309.50;;;18.71;46.18
29169;BME280;16219;42.864;23.360;2023-04-01T11:15:41;94312.00;;;18.03;50.26
29169;BME280;16219;42.864;23.360;2023-04-01T11:18:53;94308.31;;;17.86;49.14
29169;BME280;16219;42.864;23.360;2023-04-01T11:21:59;94308.00;;;17.73;49.61
29169;BME280;16219;42.864;23.360;2023-04-01T11:25:01;94296.31;;;17.56;50.19
29169;BME280;16219;42.864;23.360;2023-04-01T11:28:05;94318.84;;;17.44;52.64
29169;BME280;16219;42.864;23.360;2023-04-01T11:30:53;94331.59;;;17.08;52.17
29169;BME280;16219;42.864;23.360;2023-04-01T11:33:28;94350.69;;;16.85;52.74
29169;BME280;16219;42.864;23.360;2023-04-01T11:36:16;94375.81;;;16.73;55.04
29169;BME280;16219;42.864;23.360;2023-04-01T11:39:00;94401.31;;;16.71;55.15
29169;BME280;16219;42.864;23.360;2023-04-01T11:42:17;94477.38;;;16.36;57.96
29169;BME280;16219;42.864;23.360;2023-04-01T11:45:15;94493.31;;;16.15;72.89
29169;BME280;16219;42.864;23.360;2023-04-01T11:48:16;94550.09;;;15.02;100.00
29169;BME280;16219;42.864;23.360;2023-04-01T11:51:06;94569.00;;;14.18;100.00
29169;BME280;16219;42.864;23.360;2023-04-01T11:53:45;94584.25;;;13.12;100.00
29169;BME280;16219;42.864;23.360;2023-04-01T11:56:40;94592.25;;;12.46;100.00
29169;BME280;16219;42.864;23.360;2023-04-01T11:59:38;94575.19;;;12.21;100.00
29169;BME280;16219;42.864;23.360;2023-04-01T12:02:16;94574.28;;;12.13;100.00
29169;BME280;16219;42.864;23.360;2023-04-01T12:05:11;94569.06;;;12.17;100.00
29169;BME280;16219;42.864;23.360;2023-04-01T12:07:57;94566.63;;;12.08;100.00
29169;BME280;16219;42.864;23.360;2023-04-01T12:10:39;94563.00;;;12.16;100.00
29169;BME280;16219;42.864;23.360;2023-04-01T12:13:18;94564.66;;;12.24;100.00
29169;BME280;16219;42.864;23.360;2023-04-01T12:16:00;94559.97;;;12.37;100.00
29169;BME280;16219;42.864;23.360;2023-04-01T12:18:33;94558.22;;;12.45;100.00
29169;BME280;16219;42.864;23.360;2023-04-01T12:21:14;94548.72;;;12.40;100.00
29169;BME280;16219;42.864;23.360;2023-04-01T12:24:15;94542.00;;;12.23;100.00
29169;BME280;16219;42.864;23.360;2023-04-01T12:27:20;94538.81;;;12.37;100.00
29169;BME280;16219;42.864;23.360;2023-04-01T12:30:02;94532.13;;;12.43;100.00
29169;BME280;16219;42.864;23.360;2023-04-01T12:32:37;94533.38;;;12.49;100.00
29169;BME280;16219;42.864;23.360;2023-04-01T12:35:18;94543.28;;;12.56;100.00
29169;BME280;16219;42.864;23.360;2023-04-01T12:37:58;94537.44;;;12.66;100.00
29169;BME280;16219;42.864;23.360;2023-04-01T12:40:40;94537.19;;;12.75;100.00
29169;BME280;16219;42.864;23.360;2023-04-01T12:43:34;94539.91;;;12.79;100.00
29169;BME280;16219;42.864;23.360;2023-04-01T12:46:15;94540.69;;;12.83;100.00
29169;BME280;16219;42.864;23.360;2023-04-01T12:49:09;94545.50;;;13.00;100.00
29169;BME280;16219;42.864;23.360;2023-04-01T12:52:00;94542.94;;;13.30;100.00
29169;BME280;16219;42.864;23.360;2023-04-01T12:58:03;94528.53;;;13.28;100.00
29169;BME280;16219;42.864;23.360;2023-04-01T13:00:49;94500.28;;;13.12;100.00
29169;BME280;16219;42.864;23.360;2023-04-01T13:03:44;94516.66;;;12.91;100.00
29169;BME280;16219;42.864;23.360;2023-04-01T13:06:40;94501.56;;;12.95;100.00
29169;BME280;16219;42.864;23.360;2023-04-01T13:09:20;94511.13;;;13.04;100.00
29169;BME280;16219;42.864;23.360;2023-04-01T13:12:03;94523.53;;;12.99;100.00
29169;BME280;16219;42.864;23.360;2023-04-01T13:14:54;94502.59;;;13.14;100.00
29169;BME280;16219;42.864;23.360;2023-04-01T13:17:29;94508.41;;;13.23;100.00
29169;BME280;16219;42.864;23.360;2023-04-01T13:20:07;94505.81;;;13.27;100.00
29169;BME280;16219;42.864;23.360;2023-04-01T13:22:52;94503.28;;;13.37;100.00
29169;BME280;16219;42.864;23.360;2023-04-01T13:25:31;94499.50;;;13.35;100.00
29169;BME280;16219;42.864;23.360;2023-04-01T13:28:12;94475.59;;;13.31;100.00
29169;BME280;16219;42.864;23.360;2023-04-01T13:30:48;94468.09;;;13.37;100.00
29169;BME280;16219;42.864;23.360;2023-04-01T13:33:23;94466.41;;;13.52;100.00
29169;BME280;16219;42.864;23.360;2023-04-01T13:36:02;94463.41;;;13.57;100.00
29169;BME280;16219;42.864;23.360;2023-04-01T13:39:03;94466.75;;;13.84;100.00
29169;BME280;16219;42.864;23.360;2023-04-01T13:41:42;94467.25;;;13.96;100.00
29169;BME280;16219;42.864;23.360;2023-04-01T13:44:20;94457.38;;;13.93;100.00
29169;BME280;16219;42.864;23.360;2023-04-01T13:47:08;94448.75;;;14.04;100.00
29169;BME280;16219;42.864;23.360;2023-04-01T13:50:04;94429.25;;;14.26;100.00
29169;BME280;16219;42.864;23.360;2023-04-01T13:52:57;94418.78;;;14.40;100.00
29169;BME280;16219;42.864;23.360;2023-04-01T13:55:49;94426.94;;;14.69;100.00
29169;BME280;16219;42.864;23.360;2023-04-01T13:58:34;94428.97;;;14.83;100.00
29169;BME280;16219;42.864;23.360;2023-04-01T14:01:13;94425.63;;;15.00;100.00
29169;BME280;16219;42.864;23.360;2023-04-01T14:04:09;94420.34;;;15.07;100.00
29169;BME280;16219;42.864;23.360;2023-04-01T14:06:51;94418.44;;;15.04;100.00
29169;BME280;16219;42.864;23.360;2023-04-01T14:09:39;94412.72;;;14.98;100.00
29169;BME280;16219;42.864;23.360;2023-04-01T14:12:26;94425.69;;;15.14;100.00
29169;BME280;16219;42.864;23.360;2023-04-01T14:15:07;94416.56;;;15.12;100.00
29169;BME280;16219;42.864;23.360;2023-04-01T14:17:58;94419.50;;;14.89;100.00
29169;BME280;16219;42.864;23.360;2023-04-01T14:20:40;94409.22;;;14.80;100.00
29169;BME280;16219;42.864;23.360;2023-04-01T14:26:07;94398.03;;;14.57;100.00
29169;BME280;16219;42.864;23.360;2023-04-01T14:28:41;94396.19;;;14.61;100.00
29169;BME280;16219;42.864;23.360;2023-04-01T14:31:46;94387.59;;;14.82;100.00
29169;BME280;16219;42.864;23.360;2023-04-01T14:34:26;94387.22;;;14.83;100.00
29169;BME280;16219;42.864;23.360;2023-04-01T14:37:05;94379.28;;;14.90;100.00
29169;BME280;16219;42.864;23.360;2023-04-01T14:40:15;94385.41;;;14.98;100.00